createdAt,value
2022-08-09T00:01:42.816Z,6.88
2022-08-09T00:04:34.662Z,7.82
2022-08-09T00:07:03.657Z,7.63
2022-08-09T00:09:35.289Z,8.05
2022-08-09T00:12:05.030Z,8.13
2022-08-09T00:14:38.060Z,7.90
2022-08-09T00:17:06.954Z,8.52
2022-08-09T00:19:34.254Z,7.88
2022-08-09T00:22:03.605Z,7.80
2022-08-09T00:24:32.286Z,8.20
2022-08-09T00:27:00.584Z,7.75
2022-08-09T00:30:09.901Z,7.90
2022-08-09T00:32:26.941Z,8.60
2022-08-09T00:34:55.413Z,8.32
2022-08-09T00:37:23.009Z,8.27
2022-08-09T00:40:14.128Z,7.93
2022-08-09T00:44:13.805Z,7.50
2022-08-09T00:45:26.234Z,8.98
2022-08-09T00:47:55.434Z,9.00
2022-08-09T00:50:24.277Z,7.43
2022-08-09T00:52:52.679Z,7.65
2022-08-09T00:56:03.179Z,7.97
2022-08-09T00:58:09.048Z,8.05
2022-08-09T01:00:40.666Z,7.85
2022-08-09T01:03:28.454Z,7.50
2022-08-09T01:06:18.050Z,8.05
2022-08-09T01:09:23.245Z,7.60
2022-08-09T01:11:55.946Z,7.00
2022-08-09T01:14:30.383Z,6.60
2022-08-09T01:17:12.351Z,7.20
2022-08-09T01:19:57.007Z,7.32
2022-08-09T01:22:42.553Z,7.32
2022-08-09T01:25:53.983Z,7.65
2022-08-09T01:28:23.510Z,7.05
2022-08-09T01:30:59.115Z,7.10
2022-08-09T01:33:29.464Z,7.57
2022-08-09T01:36:08.844Z,7.75
2022-08-09T01:38:40.037Z,7.68
2022-08-09T01:41:17.832Z,8.10
2022-08-09T01:43:50.485Z,8.20
2022-08-09T01:46:24.910Z,7.88
2022-08-09T01:49:00.132Z,7.90
2022-08-09T01:51:39.185Z,8.13
2022-08-09T01:54:11.144Z,7.90
2022-08-09T01:56:41.889Z,8.25
2022-08-09T01:59:16.130Z,7.57
2022-08-09T02:01:58.390Z,8.63
2022-08-09T02:04:30.229Z,8.65
2022-08-09T02:07:02.706Z,7.80
2022-08-09T02:09:42.446Z,8.07
2022-08-09T02:12:13.477Z,8.20
2022-08-09T02:14:52.011Z,8.45
2022-08-09T02:17:59.440Z,8.15
2022-08-09T02:20:11.780Z,8.13
2022-08-09T02:23:00.074Z,8.07
2022-08-09T02:25:30.640Z,7.65
2022-08-09T02:28:04.030Z,7.38
2022-08-09T02:30:55.803Z,7.38
2022-08-09T02:33:37.743Z,7.60
2022-08-09T02:36:16.735Z,7.00
2022-08-09T02:38:50.540Z,8.18
2022-08-09T02:41:28.112Z,8.15
2022-08-09T02:44:10.262Z,7.43
2022-08-09T02:46:42.500Z,8.20
2022-08-09T02:49:16.085Z,8.50
2022-08-09T02:51:46.992Z,8.30
2022-08-09T02:56:51.264Z,7.15
2022-08-09T02:59:26.370Z,7.82
2022-08-09T03:02:07.114Z,7.32
2022-08-09T03:04:41.833Z,7.25
2022-08-09T03:07:12.413Z,7.68
2022-08-09T03:09:43.799Z,8.05
2022-08-09T03:12:26.011Z,7.50
2022-08-09T03:14:57.395Z,7.10
2022-08-09T03:17:27.203Z,7.88
2022-08-09T03:20:03.285Z,7.57
2022-08-09T03:22:41.856Z,7.25
2022-08-09T03:25:25.849Z,8.13
2022-08-09T03:27:59.266Z,7.30
2022-08-09T03:30:33.200Z,7.50
2022-08-09T03:33:13.007Z,7.45
2022-08-09T03:38:32.767Z,7.10
2022-08-09T03:41:00.368Z,8.20
2022-08-09T03:43:31.838Z,7.80
2022-08-09T03:46:05.197Z,7.93
2022-08-09T03:48:55.095Z,8.25
2022-08-09T03:51:55.814Z,8.18
2022-08-09T03:54:11.967Z,7.45
2022-08-09T03:56:41.161Z,8.20
2022-08-09T03:59:17.099Z,9.07
2022-08-09T04:01:50.627Z,9.27
2022-08-09T04:04:18.908Z,8.88
2022-08-09T04:06:49.336Z,8.25
2022-08-09T04:09:47.693Z,8.70
2022-08-09T04:12:12.043Z,8.52
2022-08-09T04:15:01.873Z,8.30
2022-08-09T04:17:42.506Z,7.88
2022-08-09T04:20:12.744Z,8.27
2022-08-09T04:22:41.341Z,7.85
2022-08-09T04:25:13.010Z,8.05
2022-08-09T04:27:40.618Z,8.73
2022-08-09T04:30:23.346Z,7.88
2022-08-09T04:32:54.059Z,8.38
2022-08-09T04:35:21.790Z,7.70
2022-08-09T04:37:49.249Z,7.80
2022-08-09T04:40:28.596Z,7.18
2022-08-09T04:43:04.019Z,8.25
2022-08-09T04:45:36.220Z,7.97
2022-08-09T04:48:20.079Z,7.35
2022-08-09T04:50:50.071Z,5.97
2022-08-09T04:53:17.226Z,5.47
2022-08-09T04:55:57.721Z,5.28
2022-08-09T04:58:31.903Z,6.53
2022-08-09T05:01:01.983Z,6.18
2022-08-09T05:03:40.142Z,6.38
2022-08-09T05:06:11.442Z,6.00
2022-08-09T05:08:38.887Z,5.07
2022-08-09T05:11:11.341Z,6.97
2022-08-09T05:13:39.196Z,6.40
2022-08-09T05:16:10.350Z,6.45
2022-08-09T05:18:55.110Z,7.22
2022-08-09T05:21:30.259Z,7.93
2022-08-09T05:24:04.874Z,7.20
2022-08-09T05:26:37.007Z,6.55
2022-08-09T05:29:17.328Z,7.55
2022-08-09T05:31:56.161Z,8.07
2022-08-09T05:34:30.887Z,7.60
2022-08-09T05:37:07.043Z,7.75
2022-08-09T05:39:43.223Z,6.55
2022-08-09T05:42:20.607Z,6.18
2022-08-09T05:44:51.006Z,6.32
2022-08-09T05:47:21.529Z,6.75
2022-08-09T05:50:25.547Z,6.57
2022-08-09T05:52:39.508Z,5.20
2022-08-09T05:55:08.519Z,4.55
2022-08-09T05:57:51.297Z,5.40
2022-08-09T06:00:25.008Z,5.60
2022-08-09T06:02:54.509Z,5.22
2022-08-09T06:05:31.284Z,4.70
2022-08-09T06:08:13.185Z,5.35
2022-08-09T06:10:40.323Z,4.53
2022-08-09T06:13:12.414Z,4.97
2022-08-09T06:15:47.193Z,3.90
2022-08-09T06:18:18.028Z,4.35
2022-08-09T06:20:54.217Z,3.80
2022-08-09T06:23:54.947Z,3.55
2022-08-09T06:26:20.389Z,3.40
2022-08-09T06:29:01.103Z,3.05
2022-08-09T06:31:40.553Z,2.92
2022-08-09T06:34:22.909Z,3.03
2022-08-09T06:36:59.221Z,3.00
2022-08-09T06:39:49.069Z,2.85
2022-08-09T06:42:17.497Z,2.35
2022-08-09T06:44:53.999Z,2.35
2022-08-09T06:47:23.747Z,2.63
2022-08-09T06:50:14.442Z,2.33
2022-08-09T06:52:39.718Z,1.88
2022-08-09T06:55:12.567Z,2.10
2022-08-09T06:58:01.423Z,2.15
2022-08-09T07:00:52.114Z,2.00
2022-08-09T07:03:15.955Z,1.90
2022-08-09T07:06:03.056Z,1.88
2022-08-09T07:08:30.719Z,1.65
2022-08-09T07:10:57.756Z,1.67
2022-08-09T07:13:28.197Z,2.00
2022-08-09T07:16:42.047Z,2.22
2022-08-09T07:18:47.343Z,1.80
2022-08-09T07:21:18.723Z,1.83
2022-08-09T07:23:56.436Z,1.80
2022-08-09T07:26:26.571Z,1.75
2022-08-09T07:29:01.260Z,1.67
2022-08-09T07:31:46.088Z,1.48
2022-08-09T07:34:20.561Z,1.80
2022-08-09T07:36:52.866Z,1.75
2022-08-09T07:39:40.443Z,1.73
2022-08-09T07:42:07.638Z,1.40
2022-08-09T07:44:52.473Z,1.88
2022-08-09T07:47:39.520Z,1.80
2022-08-09T07:50:09.359Z,2.10
2022-08-09T07:52:37.419Z,1.55
2022-08-09T07:55:09.512Z,1.92
2022-08-09T07:57:46.895Z,1.90
2022-08-09T08:00:20.643Z,1.80
2022-08-09T08:03:04.573Z,1.85
2022-08-09T08:05:54.064Z,2.10
2022-08-09T08:09:02.065Z,1.85
2022-08-09T08:12:10.142Z,2.25
2022-08-09T08:13:57.276Z,2.10
2022-08-09T08:16:29.827Z,2.10
2022-08-09T08:19:03.133Z,2.08
2022-08-09T08:21:31.070Z,1.80
2022-08-09T08:24:01.416Z,2.00
2022-08-09T08:26:41.975Z,2.13
2022-08-09T08:32:03.776Z,1.85
2022-08-09T08:34:33.552Z,1.92
2022-08-09T08:37:02.425Z,1.50
2022-08-09T08:39:29.475Z,1.75
2022-08-09T08:42:07.215Z,1.65
2022-08-09T08:44:38.088Z,1.67
2022-08-09T08:47:12.146Z,1.98
2022-08-09T08:49:47.266Z,2.03
2022-08-09T08:52:58.018Z,2.00
2022-08-09T08:55:10.551Z,1.80
2022-08-09T08:57:38.216Z,2.00
2022-08-09T09:00:16.997Z,2.30
2022-08-09T09:03:01.521Z,2.40
2022-08-09T09:05:59.821Z,2.05
2022-08-09T09:08:31.042Z,2.10
2022-08-09T09:11:03.229Z,2.00
2022-08-09T09:13:54.863Z,2.00
2022-08-09T09:16:30.677Z,2.35
2022-08-09T09:19:40.400Z,2.30
2022-08-09T09:22:07.695Z,2.25
2022-08-09T09:26:01.158Z,1.98
2022-08-09T09:28:06.663Z,2.00
2022-08-09T09:30:51.325Z,1.85
2022-08-09T09:33:18.337Z,2.15
2022-08-09T09:36:02.356Z,2.13
2022-08-09T09:38:47.946Z,1.90
2022-08-09T09:41:25.050Z,2.20
2022-08-09T09:44:10.819Z,2.65
2022-08-09T09:46:43.575Z,2.53
2022-08-09T09:49:23.587Z,3.08
2022-08-09T09:52:16.572Z,2.42
2022-08-09T09:55:16.832Z,2.80
2022-08-09T09:58:03.081Z,2.55
2022-08-09T10:00:32.314Z,3.15
2022-08-09T10:03:11.449Z,3.00
2022-08-09T10:06:04.746Z,2.97
2022-08-09T10:08:32.849Z,3.15
2022-08-09T10:12:01.446Z,3.00
2022-08-09T10:14:33.700Z,3.00
2022-08-09T10:17:38.673Z,3.15
2022-08-09T10:20:00.304Z,2.83
2022-08-09T10:22:33.643Z,2.58
2022-08-09T10:25:11.619Z,2.85
2022-08-09T10:27:57.997Z,2.53
2022-08-09T10:33:29.902Z,2.70
2022-08-09T10:36:11.841Z,2.50
2022-08-09T10:38:57.257Z,3.40
2022-08-09T10:41:28.261Z,3.45
2022-08-09T10:43:59.929Z,2.75
2022-08-09T10:47:00.739Z,2.97
2022-08-09T10:49:54.050Z,3.00
2022-08-09T10:53:00.128Z,3.05
2022-08-09T10:55:35.733Z,3.15
2022-08-09T10:58:37.477Z,2.67
2022-08-09T11:03:02.075Z,2.80
2022-08-09T11:04:29.717Z,3.10
2022-08-09T11:06:59.967Z,2.90
2022-08-09T11:09:48.758Z,2.90
2022-08-09T11:12:18.493Z,2.53
2022-08-09T11:14:53.361Z,2.92
2022-08-09T11:17:23.772Z,3.00
2022-08-09T11:20:11.262Z,3.25
2022-08-09T11:22:55.298Z,2.92
2022-08-09T11:25:44.634Z,2.83
2022-08-09T11:28:54.707Z,3.20
2022-08-09T11:31:43.334Z,3.13
2022-08-09T11:34:48.403Z,2.80
2022-08-09T11:37:27.993Z,2.53
2022-08-09T11:40:11.119Z,2.67
2022-08-09T11:42:39.870Z,2.30
2022-08-09T11:45:26.205Z,2.85
2022-08-09T11:48:26.418Z,2.40
2022-08-09T11:52:48.785Z,2.65
2022-08-09T11:53:59.066Z,1.98
2022-08-09T11:56:41.298Z,2.20
2022-08-09T12:02:16.954Z,2.30
2022-08-09T12:04:32.315Z,2.03
2022-08-09T12:07:07.627Z,2.05
2022-08-09T12:09:36.264Z,2.50
2022-08-09T12:12:05.028Z,2.30
2022-08-09T12:14:40.819Z,2.10
2022-08-09T12:17:33.984Z,1.75
2022-08-09T12:20:29.106Z,1.85
2022-08-09T12:23:02.981Z,1.95
2022-08-09T12:25:37.074Z,1.92
2022-08-09T12:29:11.489Z,2.17
2022-08-09T12:30:57.949Z,2.35
2022-08-09T12:33:26.445Z,2.00
2022-08-09T12:36:15.549Z,1.77
2022-08-09T12:38:55.894Z,1.90
2022-08-09T12:41:36.338Z,2.03
2022-08-09T12:44:09.663Z,2.05
2022-08-09T12:46:39.451Z,2.10
2022-08-09T12:49:08.457Z,2.10
2022-08-09T12:52:01.203Z,1.90
2022-08-09T12:54:23.900Z,1.90
2022-08-09T12:56:53.926Z,2.00
2022-08-09T12:59:57.830Z,1.90
2022-08-09T13:02:15.226Z,2.00
2022-08-09T13:04:58.864Z,1.88
2022-08-09T13:07:28.458Z,2.13
2022-08-09T13:10:13.343Z,2.45
2022-08-09T13:13:08.699Z,2.15
2022-08-09T13:15:35.214Z,2.00
2022-08-09T13:18:09.422Z,2.20
2022-08-09T13:22:34.193Z,2.55
2022-08-09T13:24:17.188Z,1.95
2022-08-09T13:26:36.763Z,2.33
2022-08-09T13:29:20.239Z,2.20
2022-08-09T13:32:15.991Z,1.90
2022-08-09T13:34:47.581Z,1.92
2022-08-09T13:37:50.666Z,2.20
2022-08-09T13:41:45.995Z,2.10
2022-08-09T13:42:52.232Z,2.17
2022-08-09T13:45:20.056Z,2.10
2022-08-09T13:47:51.871Z,2.15
2022-08-09T13:50:30.813Z,1.95
2022-08-09T13:52:58.460Z,2.10
2022-08-09T13:55:28.969Z,2.30
2022-08-09T13:57:58.496Z,2.30
2022-08-09T14:00:29.488Z,2.30
2022-08-09T14:03:02.936Z,2.25
2022-08-09T14:05:58.604Z,2.45
2022-08-09T14:08:30.185Z,2.03
2022-08-09T14:10:57.821Z,2.45
2022-08-09T14:14:15.311Z,2.60
2022-08-09T14:16:16.982Z,2.47
2022-08-09T14:18:49.509Z,2.72
2022-08-09T14:21:21.060Z,2.10
2022-08-09T14:23:55.175Z,2.20
2022-08-09T14:26:31.926Z,2.80
2022-08-09T14:29:07.884Z,2.08
2022-08-09T14:31:54.847Z,2.08
2022-08-09T14:34:31.134Z,2.80
2022-08-09T14:37:06.872Z,2.63
2022-08-09T14:39:40.057Z,4.03
2022-08-09T14:42:12.785Z,2.60
2022-08-09T14:44:59.407Z,2.88
2022-08-09T14:47:45.027Z,2.58
2022-08-09T14:50:16.135Z,2.20
2022-08-09T14:52:47.776Z,2.80
2022-08-09T14:55:20.441Z,2.13
2022-08-09T14:57:49.736Z,2.33
2022-08-09T15:00:17.540Z,2.40
2022-08-09T15:02:47.455Z,2.38
2022-08-09T15:05:19.910Z,2.38
2022-08-09T15:07:56.431Z,2.42
2022-08-09T15:10:26.921Z,1.83
2022-08-09T15:12:55.893Z,2.03
2022-08-09T15:15:24.337Z,2.28
2022-08-09T15:21:57.883Z,2.10
2022-08-09T15:24:03.763Z,2.20
2022-08-09T15:25:58.814Z,2.40
2022-08-09T15:28:28.441Z,2.22
2022-08-09T15:31:08.946Z,2.80
2022-08-09T15:34:17.489Z,2.92
2022-08-09T15:36:29.355Z,3.17
2022-08-09T15:38:59.941Z,2.38
2022-08-09T15:41:31.660Z,2.50
2022-08-09T15:44:04.054Z,2.30
2022-08-09T15:46:34.505Z,3.22
2022-08-09T15:49:20.834Z,2.78
2022-08-09T15:52:05.032Z,2.80
2022-08-09T15:54:51.438Z,2.33
2022-08-09T15:57:34.159Z,2.10
2022-08-09T16:00:09.284Z,2.97
2022-08-09T16:02:41.726Z,2.53
2022-08-09T16:05:09.980Z,2.40
2022-08-09T16:07:39.543Z,2.78
2022-08-09T16:10:38.397Z,2.80
2022-08-09T16:13:01.238Z,2.88
2022-08-09T16:16:04.787Z,2.45
2022-08-09T16:18:15.800Z,2.70
2022-08-09T16:20:43.406Z,2.88
2022-08-09T16:23:14.232Z,2.72
2022-08-09T16:25:44.719Z,3.63
2022-08-09T16:28:17.025Z,3.53
2022-08-09T16:30:44.635Z,4.10
2022-08-09T16:33:15.954Z,3.10
2022-08-09T16:35:55.869Z,4.50
2022-08-09T16:38:25.927Z,4.57
2022-08-09T16:40:53.424Z,4.57
2022-08-09T16:43:22.607Z,3.70
2022-08-09T16:45:53.516Z,4.00
2022-08-09T16:48:43.172Z,3.13
2022-08-09T16:51:13.819Z,3.72
2022-08-09T16:54:09.134Z,5.37
2022-08-09T16:56:31.493Z,4.30
2022-08-09T16:59:01.063Z,3.25
2022-08-09T17:01:34.029Z,3.47
2022-08-09T17:04:03.099Z,2.88
2022-08-09T17:06:33.551Z,3.20
2022-08-09T17:09:45.539Z,2.95
2022-08-09T17:12:01.925Z,3.03
2022-08-09T17:14:34.671Z,3.70
2022-08-09T17:17:04.025Z,3.30
2022-08-09T17:20:28.815Z,4.10
2022-08-09T17:22:49.986Z,3.13
2022-08-09T17:25:22.049Z,3.25
2022-08-09T17:27:53.912Z,3.20
2022-08-09T17:32:54.454Z,3.40
2022-08-09T17:35:25.760Z,3.20
2022-08-09T17:38:11.943Z,3.53
2022-08-09T17:40:40.589Z,3.17
2022-08-09T17:43:32.991Z,3.10
2022-08-09T17:46:02.577Z,3.33
2022-08-09T17:48:32.558Z,4.10
2022-08-09T17:51:10.390Z,5.85
2022-08-09T17:53:52.962Z,3.58
2022-08-09T17:56:26.731Z,3.15
2022-08-09T17:59:00.735Z,4.10
2022-08-09T18:01:58.225Z,3.13
2022-08-09T18:04:18.378Z,7.70
2022-08-09T18:06:49.791Z,5.10
2022-08-09T18:09:23.047Z,4.22
2022-08-09T18:12:05.708Z,5.32
2022-08-09T18:14:37.651Z,4.03
2022-08-09T18:17:18.801Z,5.35
2022-08-09T18:20:54.435Z,4.60
2022-08-09T18:22:44.207Z,5.03
2022-08-09T18:25:19.653Z,4.68
2022-08-09T18:28:04.893Z,4.43
2022-08-09T18:30:39.734Z,4.45
2022-08-09T18:33:23.097Z,3.85
2022-08-09T18:35:58.947Z,3.35
2022-08-09T18:38:28.249Z,5.03
2022-08-09T18:40:55.673Z,4.32
2022-08-09T18:43:23.757Z,5.18
2022-08-09T18:46:46.905Z,6.13
2022-08-09T18:48:39.298Z,3.92
2022-08-09T18:51:14.092Z,3.50
2022-08-09T18:54:00.826Z,3.17
2022-08-09T18:56:29.737Z,4.50
2022-08-09T18:58:57.411Z,4.57
2022-08-09T19:01:25.011Z,4.57
2022-08-09T19:04:01.343Z,5.55
2022-08-09T19:06:34.952Z,4.60
2022-08-09T19:09:07.554Z,4.10
2022-08-09T19:11:37.706Z,3.90
2022-08-09T19:14:06.941Z,4.35
2022-08-09T19:16:36.582Z,4.25
2022-08-09T19:19:25.122Z,4.63
2022-08-09T19:22:06.825Z,4.80
2022-08-09T19:25:09.851Z,5.63
2022-08-09T19:27:23.255Z,6.18
2022-08-09T19:30:21.108Z,6.53
2022-08-09T19:32:37.592Z,6.15
2022-08-09T19:35:05.507Z,6.05
2022-08-09T19:37:54.633Z,5.72
2022-08-09T19:40:21.583Z,5.90
2022-08-09T19:42:49.785Z,5.75
2022-08-09T19:45:17.821Z,6.15
2022-08-09T19:47:46.120Z,6.32
2022-08-09T19:50:49.206Z,5.13
2022-08-09T19:53:04.080Z,5.28
2022-08-09T19:56:03.332Z,5.20
2022-08-09T19:58:30.131Z,5.15
2022-08-09T20:00:58.056Z,5.28
2022-08-09T20:04:17.954Z,4.78
2022-08-09T20:06:23.605Z,4.70
2022-08-09T20:08:57.718Z,4.88
2022-08-09T20:11:33.891Z,5.00
2022-08-09T20:14:15.352Z,4.97
2022-08-09T20:16:53.312Z,4.72
2022-08-09T20:19:48.775Z,5.70
2022-08-09T20:22:14.581Z,5.82
2022-08-09T20:24:42.820Z,4.95
2022-08-09T20:27:21.400Z,5.50
2022-08-09T20:29:49.771Z,5.40
2022-08-09T20:32:30.830Z,5.40
2022-08-09T20:35:01.531Z,5.35
2022-08-09T20:38:08.640Z,5.90
2022-08-09T20:40:19.193Z,5.40
2022-08-09T20:42:59.832Z,6.18
2022-08-09T20:45:59.836Z,6.15
2022-08-09T20:48:15.677Z,6.53
2022-08-09T20:50:51.068Z,6.13
2022-08-09T20:53:36.868Z,6.45
2022-08-09T20:56:08.973Z,6.22
2022-08-09T20:58:36.484Z,6.95
2022-08-09T21:01:32.422Z,6.40
2022-08-09T21:05:52.442Z,6.40
2022-08-09T21:06:43.019Z,6.93
2022-08-09T21:09:13.956Z,6.38
2022-08-09T21:14:30.890Z,6.45
2022-08-09T21:17:00.045Z,7.10
2022-08-09T21:20:19.303Z,6.47
2022-08-09T21:22:36.271Z,6.20
2022-08-09T21:25:02.694Z,7.68
2022-08-09T21:27:51.900Z,6.45
2022-08-09T21:30:18.620Z,7.57
2022-08-09T21:32:46.671Z,7.13
2022-08-09T21:35:13.877Z,7.55
2022-08-09T21:37:59.368Z,7.07
2022-08-09T21:40:30.364Z,7.05
2022-08-09T21:43:00.850Z,6.95
2022-08-09T21:45:28.523Z,6.35
2022-08-09T21:47:58.854Z,7.32
2022-08-09T21:50:38.630Z,8.00
2022-08-09T21:53:15.613Z,7.25
2022-08-09T21:55:50.979Z,7.47
2022-08-09T21:58:18.424Z,8.02
2022-08-09T22:00:48.707Z,8.40
2022-08-09T22:03:25.772Z,6.95
2022-08-09T22:05:54.367Z,6.85
2022-08-09T22:08:24.773Z,8.27
2022-08-09T22:11:50.167Z,7.38
2022-08-09T22:13:43.348Z,8.25
2022-08-09T22:16:11.512Z,7.30
2022-08-09T22:18:54.327Z,7.70
2022-08-09T22:21:27.429Z,8.27
2022-08-09T22:24:16.960Z,8.05
2022-08-09T22:26:51.594Z,8.15
2022-08-09T22:29:19.852Z,7.78
2022-08-09T22:31:56.756Z,8.05
2022-08-09T22:34:26.790Z,6.95
2022-08-09T22:36:56.159Z,7.88
2022-08-09T22:39:56.091Z,7.57
2022-08-09T22:42:22.152Z,8.30
2022-08-09T22:48:06.196Z,7.32
2022-08-09T22:48:15.664Z,7.88
2022-08-09T22:50:29.099Z,7.72
2022-08-09T22:52:58.327Z,8.10
2022-08-09T22:55:39.697Z,8.10
2022-08-09T22:58:20.334Z,7.55
2022-08-09T23:00:58.300Z,8.18
2022-08-09T23:04:02.628Z,7.88
2022-08-09T23:06:14.034Z,8.77
2022-08-09T23:08:42.205Z,8.43
2022-08-09T23:11:09.228Z,7.85
2022-08-09T23:13:36.312Z,8.07
2022-08-09T23:16:04.211Z,7.60
2022-08-09T23:18:31.448Z,7.40
2022-08-09T23:20:58.478Z,7.18
2022-08-09T23:23:26.001Z,8.00
2022-08-09T23:25:53.030Z,7.80
2022-08-09T23:28:20.074Z,7.78
2022-08-09T23:30:51.325Z,7.55
2022-08-09T23:33:20.996Z,7.30
2022-08-09T23:36:06.208Z,7.47
2022-08-09T23:38:35.241Z,7.20
2022-08-09T23:41:03.464Z,7.85
2022-08-09T23:43:30.581Z,7.85
2022-08-09T23:45:57.676Z,7.10
2022-08-09T23:48:25.171Z,6.90
2022-08-09T23:50:52.171Z,7.50
2022-08-09T23:53:19.170Z,7.35
2022-08-09T23:55:54.536Z,7.68
2022-08-09T23:58:25.852Z,7.80
